QFA44 YSSY-YMML
Flight info
| Callsign | QFA44 |
|---|---|
| Flight time | N/A |
| Altitude | 36000 |
| Route | WOL2/34L WOL H65 LEECE Q29 ML |
| Aircraft | B789/H-SDE1E2E3FGHIJ2J3J4J5M1RWXY/LB1D1 |
Departure
| Time | 2026-05-04 09:38 |
|---|---|
| Airport | Sydney Kingsford Smith International Airport (YSSY) |
Arrival
| Time | N/A |
|---|---|
| Airport | Melbourne Airport (YMML) |
| Time | Latitude | Longitude | Altitude | Speed | Heading |
|---|---|---|---|---|---|
| 2026-05-04 08:57 | -33.93859 | 151.16972 | 34 ft | 0 kts | 254° |
| 2026-05-04 09:09 | -33.93856 | 151.16983 | 34 ft | 4 kts | 254° |
| 2026-05-04 09:09 | -33.93849 | 151.17014 | 34 ft | 4 kts | 254° |
| 2026-05-04 09:10 | -33.93843 | 151.17040 | 35 ft | 4 kts | 270° |
| 2026-05-04 09:10 | -33.93851 | 151.17068 | 35 ft | 3 kts | 318° |
| 2026-05-04 09:10 | -33.93873 | 151.17083 | 34 ft | 4 kts | 347° |
| 2026-05-04 09:10 | -33.93898 | 151.17090 | 35 ft | 4 kts | 346° |
| 2026-05-04 09:11 | -33.93922 | 151.17097 | 34 ft | 4 kts | 351° |
| 2026-05-04 09:11 | -33.93949 | 151.17098 | 34 ft | 4 kts | 10° |
| 2026-05-04 09:11 | -33.93974 | 151.17088 | 33 ft | 4 kts | 31° |
| 2026-05-04 09:11 | -33.93995 | 151.17069 | 32 ft | 4 kts | 49° |
| 2026-05-04 09:12 | -33.94011 | 151.17042 | 32 ft | 4 kts | 65° |
| 2026-05-04 09:12 | -33.94018 | 151.17020 | 35 ft | 5 kts | 74° |
| 2026-05-04 09:14 | -33.94015 | 151.17030 | 33 ft | 0 kts | 74° |
| 2026-05-04 09:15 | -33.94015 | 151.17031 | 33 ft | 1 kts | 74° |
| 2026-05-04 09:17 | -33.94056 | 151.17245 | 35 ft | 0 kts | 167° |
| 2026-05-04 09:20 | -33.94057 | 151.17245 | 35 ft | 0 kts | 167° |
| 2026-05-04 09:21 | -33.94102 | 151.17257 | 34 ft | 13 kts | 167° |
| 2026-05-04 09:21 | -33.94239 | 151.17297 | 35 ft | 26 kts | 167° |
| 2026-05-04 09:21 | -33.94449 | 151.17350 | 36 ft | 36 kts | 168° |
| 2026-05-04 09:21 | -33.94624 | 151.17395 | 36 ft | 36 kts | 167° |
| 2026-05-04 09:22 | -33.94975 | 151.17487 | 35 ft | 34 kts | 167° |
| 2026-05-04 09:22 | -33.95192 | 151.17543 | 35 ft | 31 kts | 167° |
| 2026-05-04 09:22 | -33.95401 | 151.17598 | 35 ft | 30 kts | 168° |
| 2026-05-04 09:22 | -33.95539 | 151.17633 | 35 ft | 30 kts | 168° |
| 2026-05-04 09:23 | -33.95728 | 151.17680 | 36 ft | 22 kts | 167° |
| 2026-05-04 09:23 | -33.95815 | 151.17706 | 35 ft | 0 kts | 165° |
| 2026-05-04 09:34 | -33.95879 | 151.17785 | 35 ft | 0 kts | 108° |
| 2026-05-04 09:37 | -33.95714 | 151.17878 | 34 ft | 10 kts | 348° |
| 2026-05-04 09:37 | -33.95425 | 151.17804 | 34 ft | 86 kts | 347° |
| 2026-05-04 09:38 | -33.94571 | 151.17579 | 45 ft | 163 kts | 347° |
| 2026-05-04 09:38 | -33.93463 | 151.17234 | 966 ft | 158 kts | 342° |
| 2026-05-04 09:38 | -33.92423 | 151.16593 | 1246 ft | 182 kts | 313° |
| 2026-05-04 09:38 | -33.91924 | 151.15169 | 1700 ft | 183 kts | 284° |
| 2026-05-04 09:39 | -33.91567 | 151.13595 | 1966 ft | 209 kts | 286° |
| 2026-05-04 09:39 | -33.91085 | 151.11831 | 2123 ft | 236 kts | 289° |
| 2026-05-04 09:39 | -33.90476 | 151.09861 | 2505 ft | 258 kts | 290° |
| 2026-05-04 09:39 | -33.89858 | 151.07864 | 3877 ft | 255 kts | 290° |
| 2026-05-04 09:40 | -33.89232 | 151.05797 | 4779 ft | 270 kts | 290° |
| 2026-05-04 09:40 | -33.88598 | 151.03693 | 5436 ft | 268 kts | 290° |
| 2026-05-04 09:40 | -33.87966 | 151.01595 | 6675 ft | 267 kts | 290° |
| 2026-05-04 09:40 | -33.87326 | 150.99466 | 7735 ft | 273 kts | 290° |
| 2026-05-04 09:41 | -33.86673 | 150.97295 | 8792 ft | 277 kts | 290° |
| 2026-05-04 09:42 | -33.86709 | 150.80117 | 14035 ft | 360 kts | 210° |
| 2026-05-04 09:43 | -33.89071 | 150.79094 | 14868 ft | 365 kts | 188° |
| 2026-05-04 09:43 | -33.91583 | 150.79193 | 15664 ft | 371 kts | 167° |
| 2026-05-04 09:43 | -33.93989 | 150.80359 | 16426 ft | 376 kts | 151° |
| 2026-05-04 09:43 | -33.96210 | 150.82053 | 17183 ft | 381 kts | 145° |
| 2026-05-04 09:44 | -33.98372 | 150.83927 | 17934 ft | 385 kts | 144° |
| 2026-05-04 09:44 | -34.00757 | 150.85402 | 18619 ft | 388 kts | 164° |
| 2026-05-04 09:44 | -34.03158 | 150.85846 | 19250 ft | 391 kts | 181° |
| 2026-05-04 09:46 | -34.22668 | 150.82608 | 23406 ft | 419 kts | 186° |
| 2026-05-04 09:46 | -34.25554 | 150.82223 | 23908 ft | 423 kts | 186° |
| 2026-05-04 09:46 | -34.28499 | 150.81898 | 24443 ft | 426 kts | 185° |
| 2026-05-04 09:47 | -34.31469 | 150.81632 | 24931 ft | 429 kts | 185° |
| 2026-05-04 09:47 | -34.34465 | 150.81340 | 25392 ft | 433 kts | 185° |
| 2026-05-04 09:49 | -34.55593 | 150.77329 | 28378 ft | 450 kts | 213° |
| 2026-05-04 09:49 | -34.58055 | 150.74988 | 28729 ft | 452 kts | 226° |
| 2026-05-04 09:49 | -34.60066 | 150.72051 | 29035 ft | 455 kts | 233° |
| 2026-05-04 09:51 | -34.71492 | 150.53062 | 31051 ft | 470 kts | 234° |
| 2026-05-04 09:51 | -34.73417 | 150.49844 | 31339 ft | 472 kts | 234° |
| 2026-05-04 09:51 | -34.75359 | 150.46602 | 31620 ft | 474 kts | 234° |
| 2026-05-04 09:51 | -34.77311 | 150.43345 | 31827 ft | 478 kts | 234° |
| 2026-05-04 09:52 | -34.79273 | 150.40064 | 32147 ft | 479 kts | 234° |
| 2026-05-04 09:52 | -34.81239 | 150.36771 | 32393 ft | 481 kts | 234° |
| 2026-05-04 09:52 | -34.83207 | 150.33472 | 32688 ft | 482 kts | 234° |
| 2026-05-04 09:52 | -34.85176 | 150.30171 | 33059 ft | 481 kts | 234° |
| 2026-05-04 09:53 | -34.87136 | 150.26881 | 33418 ft | 480 kts | 234° |
| 2026-05-04 09:53 | -34.89099 | 150.23582 | 33744 ft | 480 kts | 234° |
| 2026-05-04 09:53 | -34.91061 | 150.20281 | 33979 ft | 482 kts | 234° |
| 2026-05-04 09:53 | -34.93027 | 150.16972 | 34316 ft | 482 kts | 234° |
| 2026-05-04 09:54 | -34.94969 | 150.13701 | 34635 ft | 481 kts | 234° |
| 2026-05-04 09:54 | -34.96926 | 150.10400 | 34984 ft | 480 kts | 234° |
| 2026-05-04 09:54 | -34.98878 | 150.07104 | 35352 ft | 478 kts | 234° |
| 2026-05-04 09:54 | -35.00826 | 150.03813 | 35669 ft | 478 kts | 234° |
| 2026-05-04 09:55 | -35.02769 | 150.00527 | 35985 ft | 477 kts | 234° |
| 2026-05-04 09:55 | -35.06679 | 149.93904 | 35993 ft | 480 kts | 234° |
| 2026-05-04 09:56 | -35.10564 | 149.87315 | 35989 ft | 477 kts | 234° |
| 2026-05-04 09:56 | -35.14436 | 149.80734 | 35996 ft | 477 kts | 234° |
| 2026-05-04 09:57 | -35.18306 | 149.74145 | 35992 ft | 477 kts | 234° |
| 2026-05-04 09:57 | -35.22176 | 149.67542 | 35991 ft | 478 kts | 234° |
| 2026-05-04 09:58 | -35.26053 | 149.60916 | 35994 ft | 479 kts | 234° |
| 2026-05-04 09:58 | -35.29930 | 149.54277 | 35995 ft | 479 kts | 234° |
| 2026-05-04 10:00 | -35.44741 | 149.28799 | 35993 ft | 479 kts | 234° |
| 2026-05-04 10:04 | -35.71855 | 148.81668 | 36015 ft | 505 kts | 235° |
| 2026-05-04 10:04 | -35.75947 | 148.74499 | 36013 ft | 515 kts | 235° |
| 2026-05-04 10:05 | -35.80099 | 148.67210 | 36010 ft | 523 kts | 235° |
| 2026-05-04 10:05 | -35.84282 | 148.59850 | 36013 ft | 526 kts | 235° |
| 2026-05-04 10:06 | -35.88481 | 148.52449 | 36009 ft | 526 kts | 235° |
| 2026-05-04 10:06 | -35.92658 | 148.45036 | 36010 ft | 525 kts | 235° |
| 2026-05-04 10:08 | -36.07076 | 148.19342 | 36003 ft | 519 kts | 235° |
| 2026-05-04 10:08 | -36.11121 | 148.12097 | 36005 ft | 513 kts | 235° |
| 2026-05-04 10:09 | -36.15180 | 148.04835 | 36004 ft | 510 kts | 235° |
| 2026-05-04 10:09 | -36.19218 | 147.97613 | 36002 ft | 511 kts | 236° |
| 2026-05-04 10:10 | -36.23265 | 147.90346 | 36004 ft | 511 kts | 235° |
| 2026-05-04 10:10 | -36.27315 | 147.83068 | 36012 ft | 513 kts | 236° |
| 2026-05-04 10:11 | -36.31352 | 147.75792 | 36011 ft | 513 kts | 236° |
| 2026-05-04 10:11 | -36.35408 | 147.68464 | 36011 ft | 515 kts | 236° |
| 2026-05-04 10:12 | -36.39446 | 147.61131 | 36013 ft | 516 kts | 236° |
| 2026-05-04 10:12 | -36.43490 | 147.53784 | 36010 ft | 512 kts | 236° |
| 2026-05-04 10:13 | -36.47506 | 147.46465 | 36010 ft | 512 kts | 236° |
| 2026-05-04 10:13 | -36.51438 | 147.39289 | 35986 ft | 491 kts | 236° |
| 2026-05-04 10:14 | -36.53325 | 147.35838 | 35987 ft | 475 kts | 236° |
| 2026-05-04 10:14 | -36.55159 | 147.32480 | 35991 ft | 467 kts | 236° |
| 2026-05-04 10:16 | -36.69949 | 147.05287 | 35992 ft | 477 kts | 236° |
| 2026-05-04 10:16 | -36.73675 | 146.98403 | 35999 ft | 474 kts | 236° |
| 2026-05-04 10:17 | -36.77331 | 146.91633 | 35993 ft | 475 kts | 236° |
| 2026-05-04 10:19 | -36.92071 | 146.64199 | 35991 ft | 475 kts | 236° |
| 2026-05-04 10:19 | -36.95731 | 146.57353 | 35172 ft | 473 kts | 236° |
| 2026-05-04 10:20 | -36.97565 | 146.53917 | 34390 ft | 475 kts | 236° |
| 2026-05-04 10:20 | -36.99392 | 146.50491 | 33722 ft | 472 kts | 236° |
| 2026-05-04 10:20 | -37.01217 | 146.47066 | 33021 ft | 471 kts | 236° |
| 2026-05-04 10:20 | -37.03029 | 146.43661 | 32336 ft | 470 kts | 236° |
| 2026-05-04 10:21 | -37.04817 | 146.40296 | 31647 ft | 468 kts | 236° |
| 2026-05-04 10:21 | -37.06614 | 146.36913 | 30984 ft | 466 kts | 236° |
| 2026-05-04 10:21 | -37.08409 | 146.33529 | 30294 ft | 446 kts | 236° |
| 2026-05-04 10:21 | -37.10053 | 146.30429 | 29674 ft | 418 kts | 236° |
| 2026-05-04 10:22 | -37.13088 | 146.24694 | 28543 ft | 378 kts | 237° |
| 2026-05-04 10:22 | -37.14552 | 146.21925 | 27998 ft | 381 kts | 237° |
| 2026-05-04 10:22 | -37.16016 | 146.19154 | 27450 ft | 382 kts | 237° |
| 2026-05-04 10:23 | -37.17481 | 146.16378 | 26917 ft | 382 kts | 237° |
| 2026-05-04 10:23 | -37.18944 | 146.13603 | 26371 ft | 381 kts | 237° |
| 2026-05-04 10:25 | -37.29066 | 145.94346 | 22636 ft | 371 kts | 237° |
| 2026-05-04 10:25 | -37.30481 | 145.91645 | 22110 ft | 369 kts | 237° |
| 2026-05-04 10:25 | -37.31886 | 145.88965 | 21602 ft | 366 kts | 237° |
| 2026-05-04 10:25 | -37.33288 | 145.86301 | 21093 ft | 364 kts | 237° |
| 2026-05-04 10:26 | -37.34677 | 145.83658 | 20592 ft | 361 kts | 237° |
| 2026-05-04 10:26 | -37.36035 | 145.81067 | 20081 ft | 358 kts | 237° |
| 2026-05-04 10:26 | -37.37391 | 145.78477 | 19593 ft | 355 kts | 237° |
| 2026-05-04 10:26 | -37.38748 | 145.75887 | 19098 ft | 352 kts | 237° |
| 2026-05-04 10:27 | -37.40087 | 145.73327 | 18607 ft | 348 kts | 237° |
| 2026-05-04 10:27 | -37.41409 | 145.70798 | 18133 ft | 344 kts | 237° |
| 2026-05-04 10:27 | -37.42718 | 145.68294 | 17647 ft | 341 kts | 237° |
| 2026-05-04 10:27 | -37.44012 | 145.65813 | 17184 ft | 337 kts | 237° |
| 2026-05-04 10:28 | -37.45316 | 145.63383 | 16727 ft | 332 kts | 232° |
| 2026-05-04 10:28 | -37.46719 | 145.61094 | 16264 ft | 327 kts | 234° |
| 2026-05-04 10:28 | -37.48012 | 145.58752 | 15808 ft | 324 kts | 235° |
| 2026-05-04 10:28 | -37.49309 | 145.56460 | 15370 ft | 320 kts | 234° |
| 2026-05-04 10:29 | -37.50631 | 145.54219 | 14929 ft | 316 kts | 233° |
| 2026-05-04 10:29 | -37.51932 | 145.52007 | 14495 ft | 312 kts | 234° |
| 2026-05-04 10:29 | -37.53200 | 145.49816 | 14062 ft | 308 kts | 234° |
| 2026-05-04 10:29 | -37.54456 | 145.47641 | 13629 ft | 305 kts | 234° |
| 2026-05-04 10:30 | -37.55698 | 145.45501 | 13242 ft | 300 kts | 234° |
| 2026-05-04 10:30 | -37.56919 | 145.43396 | 12926 ft | 298 kts | 234° |
| 2026-05-04 10:30 | -37.58129 | 145.41306 | 12548 ft | 297 kts | 234° |
| 2026-05-04 10:30 | -37.59316 | 145.39254 | 12176 ft | 288 kts | 234° |
| 2026-05-04 10:31 | -37.60543 | 145.37133 | 11774 ft | 304 kts | 234° |
| 2026-05-04 10:31 | -37.61781 | 145.34991 | 11347 ft | 299 kts | 234° |
| 2026-05-04 10:32 | -37.68872 | 145.22696 | 9092 ft | 283 kts | 234° |
| 2026-05-04 10:33 | -37.70028 | 145.20687 | 8722 ft | 282 kts | 234° |
| 2026-05-04 10:33 | -37.71179 | 145.18686 | 8353 ft | 279 kts | 234° |
| 2026-05-04 10:33 | -37.72308 | 145.16722 | 7999 ft | 272 kts | 234° |
| 2026-05-04 10:33 | -37.73040 | 145.15448 | 7756 ft | 261 kts | 234° |
| 2026-05-04 10:34 | -37.74134 | 145.13543 | 7437 ft | 273 kts | 234° |
| 2026-05-04 10:34 | -37.75241 | 145.11614 | 6999 ft | 271 kts | 234° |
| 2026-05-04 10:34 | -37.76344 | 145.09691 | 6559 ft | 269 kts | 234° |
| 2026-05-04 10:34 | -37.77441 | 145.07776 | 6102 ft | 267 kts | 234° |
| 2026-05-04 10:35 | -37.78528 | 145.05880 | 5658 ft | 265 kts | 234° |
| 2026-05-04 10:35 | -37.79604 | 145.04000 | 5209 ft | 264 kts | 234° |
| 2026-05-04 10:35 | -37.80677 | 145.02125 | 4817 ft | 260 kts | 234° |
| 2026-05-04 10:35 | -37.81483 | 145.00182 | 4730 ft | 243 kts | 257° |
| 2026-05-04 10:36 | -37.81783 | 144.98163 | 4655 ft | 229 kts | 257° |
| 2026-05-04 10:36 | -37.82182 | 144.96143 | 4147 ft | 240 kts | 256° |
| 2026-05-04 10:36 | -37.82543 | 144.94135 | 3690 ft | 229 kts | 261° |
| 2026-05-04 10:36 | -37.82731 | 144.92115 | 3210 ft | 232 kts | 261° |
| 2026-05-04 10:37 | -37.82995 | 144.90113 | 2742 ft | 230 kts | 264° |
| 2026-05-04 10:37 | -37.82602 | 144.88233 | 2504 ft | 217 kts | 306° |
| 2026-05-04 10:37 | -37.81573 | 144.87092 | 2511 ft | 188 kts | 325° |
| 2026-05-04 10:37 | -37.80436 | 144.86362 | 2505 ft | 180 kts | 340° |
| 2026-05-04 10:39 | -37.74470 | 144.85202 | 1947 ft | 153 kts | 351° |
| 2026-05-04 10:39 | -37.73414 | 144.85004 | 1377 ft | 152 kts | 351° |
| 2026-05-04 10:39 | -37.72396 | 144.84814 | 1077 ft | 139 kts | 351° |
| 2026-05-04 10:40 | -37.71461 | 144.84639 | 958 ft | 130 kts | 351° |